createdAt,value
2023-01-29T00:00:44.679Z,9.17
2023-01-29T00:02:47.959Z,9.70
2023-01-29T00:04:50.810Z,10.00
2023-01-29T00:06:54.010Z,8.40
2023-01-29T00:08:56.914Z,8.70
2023-01-29T00:11:02.458Z,8.83
2023-01-29T00:13:06.658Z,8.43
2023-01-29T00:15:10.420Z,7.20
2023-01-29T00:17:13.794Z,7.53
2023-01-29T00:19:17.472Z,7.77
2023-01-29T00:21:22.981Z,7.23
2023-01-29T00:23:25.899Z,6.93
2023-01-29T00:25:29.302Z,7.83
2023-01-29T00:27:32.224Z,7.67
2023-01-29T00:29:36.514Z,7.77
2023-01-29T00:31:39.668Z,7.53
2023-01-29T00:33:42.723Z,7.10
2023-01-29T00:35:45.489Z,7.20
2023-01-29T00:37:48.279Z,8.97
2023-01-29T00:39:51.438Z,7.23
2023-01-29T00:42:11.762Z,8.77
2023-01-29T00:44:32.383Z,8.87
2023-01-29T00:46:36.979Z,8.00
2023-01-29T00:48:39.853Z,7.23
2023-01-29T00:50:42.609Z,7.83
2023-01-29T00:52:45.844Z,6.70
2023-01-29T00:54:48.614Z,7.73
2023-01-29T00:56:51.406Z,8.20
2023-01-29T00:58:54.316Z,7.27
2023-01-29T01:00:57.288Z,7.07
2023-01-29T01:03:06.406Z,6.70
2023-01-29T01:05:13.978Z,7.20
2023-01-29T01:07:16.967Z,6.50
2023-01-29T01:09:37.301Z,7.10
2023-01-29T01:11:40.133Z,6.43
2023-01-29T01:13:43.223Z,7.30
2023-01-29T01:15:46.034Z,7.10
2023-01-29T01:17:49.547Z,6.93
2023-01-29T01:19:53.777Z,6.63
2023-01-29T01:21:56.655Z,8.20
2023-01-29T01:23:59.555Z,7.03
2023-01-29T01:26:02.797Z,7.30
2023-01-29T01:28:05.813Z,7.20
2023-01-29T01:30:11.929Z,8.10
2023-01-29T01:32:15.799Z,7.33
2023-01-29T01:34:18.621Z,7.27
2023-01-29T01:36:23.221Z,7.90
2023-01-29T01:38:26.003Z,7.37
2023-01-29T01:40:28.785Z,7.70
2023-01-29T01:42:31.699Z,7.67
2023-01-29T01:44:54.500Z,7.43
2023-01-29T01:46:57.493Z,8.20
2023-01-29T01:49:05.744Z,7.80
2023-01-29T01:51:08.597Z,7.93
2023-01-29T01:53:15.721Z,8.67
2023-01-29T01:55:22.331Z,8.30
2023-01-29T01:57:26.922Z,8.80
2023-01-29T01:59:29.784Z,7.97
2023-01-29T02:01:32.726Z,8.30
2023-01-29T02:03:56.826Z,8.67
2023-01-29T02:06:19.039Z,8.27
2023-01-29T02:08:45.648Z,8.90
2023-01-29T02:10:50.485Z,8.23
2023-01-29T02:12:53.368Z,9.70
2023-01-29T02:14:56.455Z,8.87
2023-01-29T02:17:01.416Z,9.23
2023-01-29T02:19:08.027Z,11.80
2023-01-29T02:21:29.087Z,8.87
2023-01-29T02:23:58.311Z,8.80
2023-01-29T02:26:34.159Z,8.20
2023-01-29T02:28:43.752Z,10.17
2023-01-29T02:30:52.463Z,9.53
2023-01-29T02:33:07.374Z,8.83
2023-01-29T02:35:29.829Z,8.50
2023-01-29T02:37:37.955Z,8.53
2023-01-29T02:39:52.877Z,9.30
2023-01-29T02:42:02.458Z,7.70
2023-01-29T02:44:17.727Z,9.00
2023-01-29T02:46:31.516Z,8.83
2023-01-29T02:48:42.665Z,8.30
2023-01-29T02:50:49.026Z,8.70
2023-01-29T02:53:00.137Z,8.60
2023-01-29T02:55:09.522Z,8.67
2023-01-29T02:57:20.660Z,7.83
2023-01-29T02:59:30.983Z,7.67
2023-01-29T03:01:37.038Z,8.43
2023-01-29T03:03:43.299Z,9.67
2023-01-29T03:05:54.995Z,8.67
2023-01-29T03:08:05.062Z,9.27
2023-01-29T03:10:14.164Z,9.03
2023-01-29T03:12:33.769Z,9.50
2023-01-29T03:14:54.131Z,8.97
2023-01-29T03:16:56.889Z,8.97
2023-01-29T03:19:05.655Z,9.87
2023-01-29T03:21:28.533Z,8.63
2023-01-29T03:23:51.929Z,8.80
2023-01-29T03:26:14.607Z,11.60
2023-01-29T03:28:36.566Z,10.17
2023-01-29T03:31:02.842Z,8.80
2023-01-29T03:33:10.073Z,9.37
2023-01-29T03:35:20.872Z,9.10
2023-01-29T03:37:28.505Z,9.40
2023-01-29T03:39:31.711Z,9.83
2023-01-29T03:41:38.097Z,10.30
2023-01-29T03:43:49.023Z,9.53
2023-01-29T03:46:02.582Z,10.37
2023-01-29T03:48:12.110Z,10.57
2023-01-29T03:50:30.515Z,11.53
2023-01-29T03:52:43.596Z,10.60
2023-01-29T03:54:58.354Z,10.90
2023-01-29T03:57:05.405Z,10.83
2023-01-29T03:59:20.703Z,10.53
2023-01-29T04:01:31.997Z,10.00
2023-01-29T04:03:40.669Z,10.07
2023-01-29T04:05:47.037Z,10.30
2023-01-29T04:07:57.905Z,9.80
2023-01-29T04:10:06.203Z,11.27
2023-01-29T04:12:12.145Z,11.57
2023-01-29T04:14:16.548Z,10.40
2023-01-29T04:16:22.360Z,10.10
2023-01-29T04:18:26.906Z,15.23
2023-01-29T04:20:30.536Z,11.27
2023-01-29T04:22:36.069Z,11.23
2023-01-29T04:24:39.385Z,12.40
2023-01-29T04:26:56.360Z,11.23
2023-01-29T04:29:15.129Z,12.67
2023-01-29T04:31:18.905Z,12.27
2023-01-29T04:33:34.957Z,11.57
2023-01-29T04:35:48.525Z,13.17
2023-01-29T04:37:58.988Z,15.13
2023-01-29T04:40:12.184Z,13.70
2023-01-29T04:42:28.025Z,15.80
2023-01-29T04:44:41.135Z,15.67
2023-01-29T04:46:50.333Z,16.90
2023-01-29T04:49:05.806Z,15.00
2023-01-29T04:51:13.931Z,13.87
2023-01-29T04:53:22.441Z,13.30
2023-01-29T04:55:33.873Z,14.63
2023-01-29T04:57:46.240Z,14.87
2023-01-29T04:59:54.372Z,14.47
2023-01-29T05:01:57.857Z,11.90
2023-01-29T05:04:05.627Z,13.13
2023-01-29T05:06:10.738Z,12.77
2023-01-29T05:08:18.172Z,11.60
2023-01-29T05:10:23.475Z,10.50
2023-01-29T05:12:30.006Z,10.80
2023-01-29T05:14:36.100Z,11.03
2023-01-29T05:16:43.499Z,11.27
2023-01-29T05:18:46.814Z,10.83
2023-01-29T05:20:51.998Z,10.27
2023-01-29T05:22:54.917Z,10.23
2023-01-29T05:24:57.667Z,12.17
2023-01-29T05:27:17.943Z,11.17
2023-01-29T05:29:21.957Z,13.33
2023-01-29T05:31:25.203Z,9.70
2023-01-29T05:33:29.834Z,10.43
2023-01-29T05:35:33.887Z,11.57
2023-01-29T05:37:38.109Z,10.53
2023-01-29T05:39:40.945Z,13.57
2023-01-29T05:41:44.149Z,12.07
2023-01-29T05:43:46.944Z,11.83
2023-01-29T05:45:57.165Z,11.87
2023-01-29T05:48:01.045Z,10.80
2023-01-29T05:50:03.948Z,10.77
2023-01-29T05:52:06.815Z,11.23
2023-01-29T05:54:12.517Z,12.40
2023-01-29T05:56:15.620Z,15.83
2023-01-29T05:58:19.601Z,10.37
2023-01-29T06:00:26.890Z,11.00
2023-01-29T06:02:31.578Z,11.77
2023-01-29T06:04:34.823Z,11.10
2023-01-29T06:06:38.086Z,11.13
2023-01-29T06:08:41.337Z,9.90
2023-01-29T06:10:51.542Z,11.60
2023-01-29T06:12:54.672Z,10.63
2023-01-29T06:15:00.642Z,13.13
2023-01-29T06:17:03.652Z,14.47
2023-01-29T06:19:06.750Z,14.63
2023-01-29T06:21:11.721Z,13.10
2023-01-29T06:23:16.968Z,13.30
2023-01-29T06:25:20.876Z,14.73
2023-01-29T06:27:25.292Z,13.87
2023-01-29T06:29:28.414Z,14.67
2023-01-29T06:31:39.599Z,15.50
2023-01-29T06:33:42.995Z,15.03
2023-01-29T06:35:46.172Z,14.60
2023-01-29T06:37:49.370Z,16.30
2023-01-29T06:39:52.448Z,15.63
2023-01-29T06:41:55.548Z,15.33
2023-01-29T06:44:00.124Z,14.60
2023-01-29T06:46:03.148Z,15.50
2023-01-29T06:48:06.766Z,14.30
2023-01-29T06:50:13.292Z,17.40
2023-01-29T06:52:16.343Z,17.13
2023-01-29T06:54:19.165Z,15.67
2023-01-29T06:56:21.965Z,14.67
2023-01-29T06:58:24.967Z,17.67
2023-01-29T07:00:31.291Z,15.03
2023-01-29T07:02:34.340Z,17.37
2023-01-29T07:04:37.698Z,17.13
2023-01-29T07:06:40.948Z,15.27
2023-01-29T07:08:43.938Z,16.33
2023-01-29T07:10:46.719Z,15.57
2023-01-29T07:12:49.494Z,17.00
2023-01-29T07:14:52.304Z,16.63
2023-01-29T07:16:56.368Z,17.03
2023-01-29T07:18:59.104Z,15.93
2023-01-29T07:21:05.708Z,17.70
2023-01-29T07:23:11.630Z,18.80
2023-01-29T07:25:15.273Z,17.07
2023-01-29T07:27:18.587Z,15.67
2023-01-29T07:29:24.677Z,16.60
2023-01-29T07:31:30.497Z,18.33
2023-01-29T07:33:35.440Z,17.73
2023-01-29T07:35:40.827Z,17.97
2023-01-29T07:37:44.033Z,19.80
2023-01-29T07:39:47.769Z,20.10
2023-01-29T07:41:50.739Z,20.57
2023-01-29T07:43:53.759Z,20.67
2023-01-29T07:45:57.148Z,26.27
2023-01-29T07:48:00.195Z,19.20
2023-01-29T07:50:05.221Z,20.37
2023-01-29T07:52:09.835Z,16.67
2023-01-29T07:54:13.310Z,19.43
2023-01-29T07:56:16.393Z,19.83
2023-01-29T07:58:19.554Z,20.70
2023-01-29T08:00:23.571Z,20.27
2023-01-29T08:02:27.003Z,37.17
2023-01-29T08:04:30.263Z,31.93
2023-01-29T08:06:34.707Z,22.00
2023-01-29T08:08:37.909Z,53.37
2023-01-29T08:10:41.866Z,57.33
2023-01-29T08:12:45.557Z,21.07
2023-01-29T08:14:51.552Z,24.97
2023-01-29T08:16:57.695Z,21.43
2023-01-29T08:19:02.435Z,23.13
2023-01-29T08:21:05.970Z,22.57
2023-01-29T08:23:16.868Z,25.60
2023-01-29T08:25:19.953Z,20.13
2023-01-29T08:27:29.004Z,19.47
2023-01-29T08:29:37.308Z,17.83
2023-01-29T08:31:41.964Z,19.80
2023-01-29T08:33:45.229Z,17.60
2023-01-29T08:35:50.618Z,18.50
2023-01-29T08:37:55.300Z,17.87
2023-01-29T08:40:00.222Z,17.77
2023-01-29T08:42:03.743Z,16.17
2023-01-29T08:44:09.764Z,16.13
2023-01-29T08:46:13.480Z,19.63
2023-01-29T08:48:16.764Z,18.13
2023-01-29T08:50:25.164Z,15.93
2023-01-29T08:52:31.874Z,17.23
2023-01-29T08:54:38.708Z,17.60
2023-01-29T08:56:44.111Z,16.33
2023-01-29T08:58:47.320Z,17.20
2023-01-29T09:00:51.104Z,17.07
2023-01-29T09:02:54.635Z,17.43
2023-01-29T09:05:06.739Z,14.93
2023-01-29T09:07:10.093Z,16.77
2023-01-29T09:09:14.626Z,18.57
2023-01-29T09:12:46.080Z,18.47
2023-01-29T09:14:24.611Z,16.37
2023-01-29T09:16:27.920Z,16.60
2023-01-29T09:18:56.699Z,16.63
2023-01-29T09:21:08.605Z,16.40
2023-01-29T09:23:30.353Z,17.20
2023-01-29T09:25:41.893Z,18.63
2023-01-29T09:27:51.621Z,17.67
2023-01-29T09:29:56.352Z,17.73
2023-01-29T09:32:01.369Z,18.77
2023-01-29T09:34:05.939Z,16.07
2023-01-29T09:36:10.159Z,17.33
2023-01-29T09:38:13.500Z,16.23
2023-01-29T09:40:29.773Z,17.10
2023-01-29T09:42:43.244Z,18.13
2023-01-29T09:45:04.021Z,18.13
2023-01-29T09:47:12.344Z,18.63
2023-01-29T09:49:19.541Z,20.30
2023-01-29T09:51:29.596Z,19.03
2023-01-29T09:53:44.033Z,16.67
2023-01-29T09:55:54.336Z,21.03
2023-01-29T09:58:11.968Z,20.33
2023-01-29T10:00:46.712Z,16.63
2023-01-29T10:03:28.477Z,17.50
2023-01-29T10:05:47.168Z,17.93
2023-01-29T10:08:30.997Z,17.47
2023-01-29T10:10:49.443Z,19.77
2023-01-29T10:13:06.276Z,18.83
2023-01-29T10:15:29.312Z,21.13
2023-01-29T10:17:54.688Z,17.90
2023-01-29T10:20:08.783Z,19.07
2023-01-29T10:22:40.832Z,16.83
2023-01-29T10:24:54.546Z,16.57
2023-01-29T10:27:03.863Z,16.97
2023-01-29T10:29:09.852Z,15.80
2023-01-29T10:31:39.615Z,15.20
2023-01-29T10:34:02.412Z,16.83
2023-01-29T10:36:14.840Z,16.17
2023-01-29T10:38:30.006Z,15.70
2023-01-29T10:40:50.292Z,15.03
2023-01-29T10:43:01.943Z,14.63
2023-01-29T10:45:17.253Z,14.30
2023-01-29T10:47:42.675Z,14.87
2023-01-29T10:50:05.559Z,14.10
2023-01-29T10:52:21.584Z,13.10
2023-01-29T10:54:41.689Z,12.87
2023-01-29T10:57:00.351Z,14.57
2023-01-29T10:59:15.548Z,13.87
2023-01-29T11:01:19.012Z,14.03
2023-01-29T11:03:28.588Z,13.70
2023-01-29T11:05:37.161Z,13.80
2023-01-29T11:07:40.153Z,13.53
2023-01-29T11:09:47.395Z,15.80
2023-01-29T11:11:55.279Z,13.00
2023-01-29T11:14:01.064Z,13.33
2023-01-29T11:16:13.857Z,12.40
2023-01-29T11:30:58.541Z,13.33
2023-01-29T11:33:49.075Z,13.60
2023-01-29T11:40:18.598Z,13.27
2023-01-29T11:43:12.994Z,13.30
2023-01-29T11:53:14.111Z,14.17
2023-01-29T11:55:51.113Z,13.87
2023-01-29T12:06:41.216Z,17.63
2023-01-29T12:09:42.534Z,15.93
2023-01-29T12:12:12.535Z,18.17
2023-01-29T12:14:33.596Z,15.77
2023-01-29T12:16:41.435Z,16.50
2023-01-29T12:18:52.072Z,17.47
2023-01-29T12:20:58.720Z,16.60
2023-01-29T12:23:15.248Z,16.83
2023-01-29T12:25:28.584Z,17.43
2023-01-29T12:27:39.484Z,16.20
2023-01-29T12:29:58.808Z,17.67
2023-01-29T12:32:13.744Z,17.97
2023-01-29T12:34:24.838Z,15.83
2023-01-29T12:36:33.819Z,15.47
2023-01-29T12:38:37.371Z,16.63
2023-01-29T12:40:44.032Z,15.43
2023-01-29T12:42:51.942Z,17.90
2023-01-29T12:44:58.876Z,15.20
2023-01-29T12:47:06.550Z,15.13
2023-01-29T12:49:39.504Z,17.77
2023-01-29T12:51:56.673Z,15.97
2023-01-29T12:54:07.391Z,19.50
2023-01-29T12:56:28.703Z,16.10
2023-01-29T12:58:39.164Z,19.27
2023-01-29T13:00:46.663Z,16.70
2023-01-29T13:02:56.537Z,16.33
2023-01-29T13:05:06.951Z,18.53
2023-01-29T13:07:16.094Z,17.17
2023-01-29T13:09:26.888Z,18.97
2023-01-29T13:11:38.724Z,18.13
2023-01-29T13:13:53.981Z,17.27
2023-01-29T13:16:58.434Z,16.37
2023-01-29T13:19:07.778Z,16.97
2023-01-29T13:21:50.157Z,18.60
2023-01-29T13:24:01.607Z,21.30
2023-01-29T13:26:09.158Z,17.00
2023-01-29T13:28:19.710Z,20.53
2023-01-29T13:30:31.405Z,18.13
2023-01-29T13:32:37.255Z,16.07
2023-01-29T13:34:49.374Z,15.87
2023-01-29T13:36:58.154Z,14.67
2023-01-29T13:39:06.973Z,15.10
2023-01-29T13:41:40.801Z,17.93
2023-01-29T13:43:50.334Z,13.53
2023-01-29T13:45:58.158Z,13.73
2023-01-29T13:48:25.371Z,13.83
2023-01-29T13:50:36.593Z,13.37
2023-01-29T13:52:43.998Z,13.23
2023-01-29T13:55:35.719Z,12.27
2023-01-29T13:58:19.692Z,11.83
2023-01-29T14:01:00.418Z,12.40
2023-01-29T14:04:04.235Z,12.83
2023-01-29T14:06:51.075Z,12.50
2023-01-29T14:08:54.233Z,11.90
2023-01-29T14:11:27.431Z,12.43
2023-01-29T14:13:36.425Z,11.40
2023-01-29T14:15:40.555Z,12.03
2023-01-29T14:18:17.311Z,12.07
2023-01-29T14:20:27.720Z,14.50
2023-01-29T14:22:36.892Z,11.73
2023-01-29T14:24:44.355Z,12.37
2023-01-29T14:26:49.903Z,12.77
2023-01-29T14:28:57.720Z,13.37
2023-01-29T14:31:01.883Z,12.90
2023-01-29T14:33:06.868Z,12.43
2023-01-29T14:35:19.992Z,13.30
2023-01-29T14:37:34.681Z,14.83
2023-01-29T14:39:45.163Z,13.10
2023-01-29T14:41:48.604Z,12.77
2023-01-29T14:44:12.373Z,16.60
2023-01-29T14:46:49.825Z,13.43
2023-01-29T14:48:53.389Z,12.97
2023-01-29T14:51:07.954Z,13.03
2023-01-29T14:53:16.146Z,13.30
2023-01-29T14:55:33.778Z,13.80
2023-01-29T14:57:43.984Z,12.43
2023-01-29T14:59:55.693Z,13.27
2023-01-29T15:02:06.347Z,13.03
2023-01-29T15:04:19.488Z,14.67
2023-01-29T15:06:30.034Z,13.67
2023-01-29T15:08:41.931Z,14.50
2023-01-29T15:11:09.680Z,13.63
2023-01-29T15:13:30.913Z,14.33
2023-01-29T15:15:41.508Z,14.50
2023-01-29T15:17:57.878Z,13.57
2023-01-29T15:20:01.265Z,13.30
2023-01-29T15:22:10.480Z,13.37
2023-01-29T15:24:14.898Z,16.97
2023-01-29T15:26:23.837Z,13.50
2023-01-29T15:28:30.779Z,13.53
2023-01-29T15:30:35.950Z,13.87
2023-01-29T15:32:41.201Z,14.10
2023-01-29T15:34:44.726Z,13.33
2023-01-29T15:36:49.310Z,13.53
2023-01-29T15:39:17.643Z,14.07
2023-01-29T15:41:25.085Z,12.93
2023-01-29T15:43:33.914Z,14.53
2023-01-29T15:45:42.313Z,13.90
2023-01-29T15:47:45.820Z,13.13
2023-01-29T15:49:52.443Z,14.43
2023-01-29T15:52:01.146Z,17.20
2023-01-29T15:54:06.892Z,15.70
2023-01-29T15:56:12.259Z,16.13
2023-01-29T15:58:22.989Z,13.17
2023-01-29T16:00:32.768Z,14.13
2023-01-29T16:02:56.272Z,14.60
2023-01-29T16:05:02.928Z,14.13
2023-01-29T16:07:09.345Z,13.43
2023-01-29T16:09:26.483Z,15.53
2023-01-29T16:11:29.945Z,16.73
2023-01-29T16:13:37.247Z,16.03
2023-01-29T16:15:56.498Z,14.07
2023-01-29T16:18:04.720Z,16.70
2023-01-29T16:20:21.822Z,15.27
2023-01-29T16:22:28.479Z,16.43
2023-01-29T16:24:38.327Z,15.17
2023-01-29T16:26:48.037Z,14.53
2023-01-29T16:28:53.544Z,14.77
2023-01-29T16:31:04.103Z,18.43
2023-01-29T16:33:13.260Z,14.67
2023-01-29T16:35:19.186Z,15.03
2023-01-29T16:37:28.287Z,17.50
2023-01-29T16:39:36.783Z,14.87
2023-01-29T16:41:47.478Z,14.47
2023-01-29T16:44:46.399Z,15.27
2023-01-29T16:46:57.115Z,15.93
2023-01-29T16:49:02.015Z,14.90
2023-01-29T16:51:16.539Z,13.10
2023-01-29T16:53:43.243Z,15.40
2023-01-29T16:55:51.188Z,15.63
2023-01-29T16:58:06.548Z,15.27
2023-01-29T17:00:25.191Z,16.87
2023-01-29T17:02:34.204Z,15.87
2023-01-29T17:04:40.997Z,14.40
2023-01-29T17:07:06.164Z,14.53
2023-01-29T17:09:25.545Z,15.13
2023-01-29T17:11:37.188Z,14.77
2023-01-29T17:13:45.610Z,23.10
2023-01-29T17:15:48.981Z,18.50
2023-01-29T17:17:53.718Z,19.47
2023-01-29T17:20:00.452Z,16.80
2023-01-29T17:22:05.554Z,18.37
2023-01-29T17:24:08.933Z,16.80
2023-01-29T17:26:14.768Z,17.77
2023-01-29T17:28:19.230Z,17.93
2023-01-29T17:30:24.800Z,17.67
2023-01-29T17:32:44.128Z,19.23
2023-01-29T17:34:51.415Z,17.70
2023-01-29T17:36:57.957Z,20.57
2023-01-29T17:39:01.301Z,17.80
2023-01-29T17:41:09.707Z,16.10
2023-01-29T17:43:17.709Z,16.70
2023-01-29T17:45:25.242Z,17.47
2023-01-29T17:47:34.618Z,17.33
2023-01-29T17:49:38.099Z,17.97
2023-01-29T17:51:42.642Z,19.23
2023-01-29T17:53:47.509Z,18.53
2023-01-29T17:55:53.526Z,17.97
2023-01-29T17:57:56.705Z,16.87
2023-01-29T18:00:01.944Z,17.30
2023-01-29T18:02:05.142Z,17.53
2023-01-29T18:04:09.231Z,15.53
2023-01-29T18:06:21.545Z,18.77
2023-01-29T18:08:32.716Z,19.27
2023-01-29T18:10:38.863Z,16.53
2023-01-29T18:12:43.209Z,17.63
2023-01-29T18:14:48.312Z,17.10
2023-01-29T18:16:51.755Z,14.93
2023-01-29T18:18:54.894Z,14.20
2023-01-29T18:23:31.347Z,19.63
2023-01-29T18:25:38.533Z,15.80
2023-01-29T18:27:41.749Z,18.63
2023-01-29T18:29:55.592Z,16.90
2023-01-29T18:32:20.058Z,15.73
2023-01-29T18:34:37.685Z,17.13
2023-01-29T18:36:50.339Z,16.87
2023-01-29T18:38:57.789Z,16.97
2023-01-29T18:41:10.536Z,17.37
2023-01-29T18:43:15.454Z,16.10
2023-01-29T18:45:19.591Z,20.63
2023-01-29T18:47:23.601Z,18.63
2023-01-29T18:49:28.832Z,18.20
2023-01-29T18:51:32.112Z,20.63
2023-01-29T18:53:35.232Z,18.93
2023-01-29T18:55:41.139Z,18.63
2023-01-29T18:58:27.048Z,19.40
2023-01-29T19:00:10.824Z,18.80
2023-01-29T19:02:19.241Z,21.03
2023-01-29T19:04:27.035Z,23.70
2023-01-29T19:06:30.355Z,21.67
2023-01-29T19:08:35.995Z,26.70
2023-01-29T19:10:41.597Z,24.27
2023-01-29T19:12:44.965Z,25.23
2023-01-29T19:14:54.283Z,24.93
2023-01-29T19:16:57.751Z,24.63
2023-01-29T19:19:02.917Z,22.23
2023-01-29T19:21:13.468Z,24.27
2023-01-29T19:23:26.455Z,22.90
2023-01-29T19:25:38.251Z,27.10
2023-01-29T19:27:45.672Z,27.73
2023-01-29T19:29:58.750Z,24.83
2023-01-29T19:32:12.647Z,24.80
2023-01-29T19:34:18.637Z,27.30
2023-01-29T19:36:31.496Z,26.27
2023-01-29T19:38:46.813Z,26.07
2023-01-29T19:40:50.990Z,24.50
2023-01-29T19:42:56.694Z,24.47
2023-01-29T19:44:59.797Z,24.53
2023-01-29T19:47:06.343Z,25.70
2023-01-29T19:49:16.087Z,27.60
2023-01-29T19:51:38.937Z,29.20
2023-01-29T19:53:44.912Z,37.40
2023-01-29T19:55:48.543Z,43.23
2023-01-29T19:57:55.213Z,41.70
2023-01-29T19:59:58.701Z,36.37
2023-01-29T20:02:01.940Z,37.73
2023-01-29T20:04:11.251Z,33.37
2023-01-29T20:06:16.019Z,34.87
2023-01-29T20:08:22.359Z,29.93
2023-01-29T20:10:26.011Z,29.57
2023-01-29T20:12:29.909Z,29.93
2023-01-29T20:14:34.516Z,30.43
2023-01-29T20:16:38.502Z,25.97
2023-01-29T20:18:41.797Z,25.30
2023-01-29T20:20:49.216Z,27.33
2023-01-29T20:22:56.987Z,26.93
2023-01-29T20:25:04.335Z,27.40
2023-01-29T20:27:09.417Z,30.23
2023-01-29T20:29:15.427Z,28.93
2023-01-29T20:31:20.147Z,25.90
2023-01-29T20:33:23.440Z,31.43
2023-01-29T20:35:26.750Z,29.23
2023-01-29T20:37:30.087Z,31.17
2023-01-29T20:39:33.646Z,30.83
2023-01-29T20:41:37.177Z,28.00
2023-01-29T20:43:40.446Z,29.83
2023-01-29T20:45:43.716Z,28.13
2023-01-29T20:47:48.827Z,26.97
2023-01-29T20:49:52.013Z,23.60
2023-01-29T20:51:55.149Z,25.33
2023-01-29T20:53:58.349Z,26.53
2023-01-29T20:56:04.344Z,22.10
2023-01-29T20:58:09.121Z,23.00
2023-01-29T21:00:15.745Z,23.63
2023-01-29T21:02:19.052Z,22.70
2023-01-29T21:04:23.729Z,22.17
2023-01-29T21:06:29.461Z,21.87
2023-01-29T21:08:35.642Z,24.27
2023-01-29T21:10:43.352Z,23.77
2023-01-29T21:12:46.947Z,24.30
2023-01-29T21:14:50.107Z,23.37
2023-01-29T21:16:53.514Z,21.77
2023-01-29T21:18:58.546Z,20.90
2023-01-29T21:21:03.302Z,22.30
2023-01-29T21:23:12.151Z,20.77
2023-01-29T21:25:20.601Z,24.90
2023-01-29T21:27:25.134Z,21.60
2023-01-29T21:29:28.483Z,22.97
2023-01-29T21:31:37.078Z,23.03
2023-01-29T21:33:49.302Z,21.93
2023-01-29T21:36:05.037Z,24.00
2023-01-29T21:38:08.712Z,24.33
2023-01-29T21:40:16.435Z,28.20
2023-01-29T21:42:40.151Z,25.27
2023-01-29T21:44:46.503Z,24.73
2023-01-29T21:46:54.041Z,26.27
2023-01-29T21:49:00.109Z,24.90
2023-01-29T21:51:14.074Z,27.97
2023-01-29T21:53:20.777Z,28.47
2023-01-29T21:55:26.754Z,28.93
2023-01-29T21:57:32.311Z,27.43
2023-01-29T21:59:41.134Z,27.87
2023-01-29T22:01:50.518Z,28.63
2023-01-29T22:04:02.179Z,29.70
2023-01-29T22:06:13.688Z,31.73
2023-01-29T22:08:20.538Z,32.40
2023-01-29T22:10:26.278Z,30.87
2023-01-29T22:12:29.666Z,33.57
2023-01-29T22:14:35.079Z,35.83
2023-01-29T22:16:38.221Z,35.03
2023-01-29T22:18:41.299Z,32.53
2023-01-29T22:20:44.298Z,33.73
2023-01-29T22:22:48.661Z,36.30
2023-01-29T22:24:52.515Z,35.97
2023-01-29T22:26:55.715Z,32.40
2023-01-29T22:29:01.257Z,35.27
2023-01-29T22:31:05.102Z,35.10
2023-01-29T22:33:08.408Z,32.00
2023-01-29T22:35:11.574Z,35.97
2023-01-29T22:37:14.547Z,32.97
2023-01-29T22:39:19.155Z,30.80
2023-01-29T22:41:22.391Z,32.60
2023-01-29T22:43:28.880Z,34.00
2023-01-29T22:45:32.247Z,32.23
2023-01-29T22:47:35.215Z,34.10
2023-01-29T22:49:38.302Z,37.43
2023-01-29T22:51:41.303Z,34.50
2023-01-29T22:53:49.403Z,33.23
2023-01-29T22:55:58.197Z,32.43
2023-01-29T22:58:01.353Z,31.67
2023-01-29T23:00:06.088Z,35.33
2023-01-29T23:02:10.328Z,31.67
2023-01-29T23:04:13.318Z,33.53
2023-01-29T23:06:17.168Z,33.33
2023-01-29T23:08:20.422Z,33.03
2023-01-29T23:10:23.461Z,36.07
2023-01-29T23:12:28.028Z,35.03
2023-01-29T23:14:31.011Z,33.67
2023-01-29T23:16:33.994Z,33.40
2023-01-29T23:18:37.491Z,34.17
2023-01-29T23:20:40.479Z,35.33
2023-01-29T23:22:43.472Z,34.33
2023-01-29T23:24:46.580Z,34.33
2023-01-29T23:27:06.984Z,32.80
2023-01-29T23:29:11.433Z,33.43
2023-01-29T23:31:14.831Z,37.17
2023-01-29T23:33:17.895Z,34.50
2023-01-29T23:35:21.156Z,34.33
2023-01-29T23:37:33.223Z,32.60
2023-01-29T23:39:36.279Z,35.47
2023-01-29T23:41:39.411Z,33.97
2023-01-29T23:43:42.493Z,32.67
2023-01-29T23:45:47.161Z,35.40
2023-01-29T23:47:50.117Z,32.90
2023-01-29T23:49:53.506Z,35.13
2023-01-29T23:52:00.792Z,32.70
2023-01-29T23:54:03.941Z,35.17
2023-01-29T23:56:07.656Z,30.03
2023-01-29T23:58:10.783Z,34.53
